createdAt,value
2019-01-11T00:01:58.381Z,-1.70
2019-01-11T00:04:28.950Z,-1.80
2019-01-11T00:06:59.478Z,-1.80
2019-01-11T00:09:30.006Z,-1.90
2019-01-11T00:12:00.561Z,-2.00
2019-01-11T00:14:31.154Z,-2.10
2019-01-11T00:17:01.772Z,-2.20
2019-01-11T00:19:32.287Z,-2.30
2019-01-11T00:22:02.815Z,-2.30
2019-01-11T00:24:33.306Z,-2.40
2019-01-11T00:27:03.881Z,-2.40
2019-01-11T00:29:34.402Z,-2.50
2019-01-11T00:32:05.156Z,-2.60
2019-01-11T00:34:35.696Z,-2.70
2019-01-11T00:37:06.359Z,-2.80
2019-01-11T00:39:36.880Z,-2.80
2019-01-11T00:42:07.391Z,-2.90
2019-01-11T00:44:37.884Z,-2.90
2019-01-11T00:47:08.430Z,-2.90
2019-01-11T00:49:38.917Z,-2.90
2019-01-11T00:52:09.492Z,-3.00
2019-01-11T00:54:40.016Z,-3.00
2019-01-11T00:57:10.498Z,-3.10
2019-01-11T00:59:41.020Z,-3.10
2019-01-11T01:02:11.653Z,-3.10
2019-01-11T01:04:42.182Z,-3.10
2019-01-11T01:07:13.113Z,-3.20
2019-01-11T01:09:43.699Z,-3.20
2019-01-11T01:12:14.363Z,-3.20
2019-01-11T01:14:44.951Z,-3.30
2019-01-11T01:17:15.440Z,-3.30
2019-01-11T01:19:45.966Z,-3.30
2019-01-11T01:22:16.526Z,-3.30
2019-01-11T01:24:47.054Z,-3.40
2019-01-11T01:27:17.620Z,-3.50
2019-01-11T01:29:48.153Z,-3.50
2019-01-11T01:32:18.813Z,-3.50
2019-01-11T01:34:49.341Z,-3.50
2019-01-11T01:37:19.915Z,-3.50
2019-01-11T01:39:50.443Z,-3.50
2019-01-11T01:42:20.925Z,-3.60
2019-01-11T01:44:51.441Z,-3.60
2019-01-11T01:47:21.931Z,-3.60
2019-01-11T01:49:52.451Z,-3.70
2019-01-11T01:52:23.031Z,-3.80
2019-01-11T01:54:53.550Z,-3.80
2019-01-11T01:57:24.039Z,-3.90
2019-01-11T01:59:54.576Z,-3.90
2019-01-11T02:02:25.067Z,-3.90
2019-01-11T02:04:55.582Z,-4.00
2019-01-11T02:07:26.187Z,-4.00
2019-01-11T02:09:56.695Z,-4.00
2019-01-11T02:12:27.297Z,-4.10
2019-01-11T02:14:57.782Z,-4.10
2019-01-11T02:17:28.301Z,-4.20
2019-01-11T02:19:58.796Z,-4.30
2019-01-11T02:22:29.464Z,-4.30
2019-01-11T02:25:00.000Z,-4.40
2019-01-11T02:27:30.524Z,-4.40
2019-01-11T02:30:01.077Z,-4.40
2019-01-11T02:32:31.582Z,-4.40
2019-01-11T02:35:02.104Z,-4.40
2019-01-11T02:37:32.629Z,-4.40
2019-01-11T02:40:03.617Z,-4.40
2019-01-11T02:42:34.122Z,-4.30
2019-01-11T02:45:06.776Z,-4.20
2019-01-11T02:47:37.293Z,-4.30
2019-01-11T02:50:10.691Z,-4.20
2019-01-11T02:52:41.552Z,-4.00
2019-01-11T02:55:12.190Z,-3.80
2019-01-11T02:57:42.710Z,-3.70
2019-01-11T03:00:17.445Z,-3.60
2019-01-11T03:02:48.180Z,-3.60
2019-01-11T03:05:19.438Z,-3.60
2019-01-11T03:07:50.366Z,-3.40
2019-01-11T03:10:22.297Z,-3.40
2019-01-11T03:12:53.161Z,-3.30
2019-01-11T03:15:23.684Z,-3.20
2019-01-11T03:17:54.201Z,-3.10
2019-01-11T03:20:24.695Z,-2.90
2019-01-11T03:22:55.224Z,-2.70
2019-01-11T03:25:25.708Z,-2.70
2019-01-11T03:27:56.368Z,-2.60
2019-01-11T03:30:26.863Z,-2.70
2019-01-11T03:32:57.560Z,-2.70
2019-01-11T03:35:28.152Z,-2.70
2019-01-11T03:37:58.668Z,-2.70
2019-01-11T03:40:29.165Z,-2.70
2019-01-11T03:42:59.674Z,-2.70
2019-01-11T03:45:30.217Z,-2.60
2019-01-11T03:48:00.711Z,-2.50
2019-01-11T03:50:31.504Z,-2.40
2019-01-11T03:53:02.015Z,-2.30
2019-01-11T03:55:32.524Z,-2.20
2019-01-11T03:58:03.010Z,-2.20
2019-01-11T04:00:33.532Z,-2.10
2019-01-11T04:03:04.209Z,-2.10
2019-01-11T04:05:34.710Z,-2.10
2019-01-11T04:08:05.298Z,-2.00
2019-01-11T04:10:35.818Z,-2.10
2019-01-11T04:13:06.306Z,-2.10
2019-01-11T04:15:36.857Z,-2.10
2019-01-11T04:18:11.462Z,-2.20
2019-01-11T04:20:41.986Z,-2.10
2019-01-11T04:23:12.553Z,-2.10
2019-01-11T04:25:43.161Z,-2.10
2019-01-11T04:28:13.790Z,-2.10
2019-01-11T04:30:44.353Z,-2.20
2019-01-11T04:33:14.872Z,-2.20
2019-01-11T04:35:45.430Z,-2.20
2019-01-11T04:38:15.988Z,-2.30
2019-01-11T04:40:46.490Z,-2.30
2019-01-11T04:43:17.009Z,-2.30
2019-01-11T04:45:48.610Z,-2.30
2019-01-11T04:48:19.147Z,-2.40
2019-01-11T04:50:51.071Z,-2.40
2019-01-11T04:53:21.594Z,-2.50
2019-01-11T04:55:52.226Z,-2.50
2019-01-11T04:58:22.749Z,-2.40
2019-01-11T05:00:53.279Z,-2.40
2019-01-11T05:03:23.844Z,-2.40
2019-01-11T05:05:54.371Z,-2.40
2019-01-11T05:08:24.864Z,-2.40
2019-01-11T05:10:55.385Z,-2.30
2019-01-11T05:13:27.525Z,-2.40
2019-01-11T05:15:58.053Z,-2.30
2019-01-11T05:18:28.539Z,-2.40
2019-01-11T05:20:59.061Z,-2.40
2019-01-11T05:23:29.613Z,-2.40
2019-01-11T05:26:00.290Z,-2.30
2019-01-11T05:28:30.777Z,-2.30
2019-01-11T05:31:01.432Z,-2.30
2019-01-11T05:33:32.097Z,-2.40
2019-01-11T05:36:02.625Z,-2.40
2019-01-11T05:38:33.155Z,-2.40
2019-01-11T05:41:03.671Z,-2.50
2019-01-11T05:43:34.210Z,-2.40
2019-01-11T05:46:04.845Z,-2.40
2019-01-11T05:48:35.531Z,-2.40
2019-01-11T05:51:06.097Z,-2.50
2019-01-11T05:53:36.641Z,-2.50
2019-01-11T05:56:08.271Z,-2.50
2019-01-11T05:58:40.429Z,-2.50
2019-01-11T06:01:11.086Z,-2.40
2019-01-11T06:03:41.856Z,-2.50
2019-01-11T06:06:12.590Z,-2.50
2019-01-11T06:08:43.076Z,-2.50
2019-01-11T06:11:13.679Z,-2.50
2019-01-11T06:13:44.278Z,-2.50
2019-01-11T06:16:14.831Z,-2.50
2019-01-11T06:18:45.360Z,-2.50
2019-01-11T06:21:15.849Z,-2.60
2019-01-11T06:23:46.361Z,-2.60
2019-01-11T06:26:16.876Z,-2.70
2019-01-11T06:28:47.401Z,-2.60
2019-01-11T06:31:17.878Z,-2.60
2019-01-11T06:33:48.576Z,-2.50
2019-01-11T06:36:19.066Z,-2.50
2019-01-11T06:38:49.606Z,-2.50
2019-01-11T06:41:20.271Z,-2.70
2019-01-11T06:43:51.484Z,-2.90
2019-01-11T06:46:23.553Z,-3.00
2019-01-11T06:48:54.072Z,-3.20
2019-01-11T06:51:24.601Z,-3.40
2019-01-11T06:53:55.195Z,-3.60
2019-01-11T06:56:25.710Z,-3.70
2019-01-11T06:58:56.231Z,-3.80
2019-01-11T07:01:26.717Z,-4.00
2019-01-11T07:03:57.243Z,-4.10
2019-01-11T07:06:27.741Z,-4.10
2019-01-11T07:08:58.554Z,-4.10
2019-01-11T07:11:29.047Z,-4.10
2019-01-11T07:13:59.570Z,-4.20
2019-01-11T07:16:30.095Z,-4.30
2019-01-11T07:19:00.585Z,-4.30
2019-01-11T07:21:31.136Z,-4.30
2019-01-11T07:24:01.635Z,-4.20
2019-01-11T07:26:32.621Z,-4.30
2019-01-11T07:29:03.127Z,-4.30
2019-01-11T07:31:33.663Z,-4.30
2019-01-11T07:34:04.210Z,-4.30
2019-01-11T07:36:35.396Z,-4.30
2019-01-11T07:39:09.919Z,-4.30
2019-01-11T07:41:40.453Z,-4.30
2019-01-11T07:44:10.952Z,-4.30
2019-01-11T07:46:43.211Z,-4.20
2019-01-11T07:49:13.698Z,-4.20
2019-01-11T07:51:44.421Z,-4.20
2019-01-11T07:54:14.912Z,-4.10
2019-01-11T07:56:45.519Z,-4.00
2019-01-11T07:59:16.367Z,-3.80
2019-01-11T08:01:46.893Z,-3.80
2019-01-11T08:04:17.446Z,-3.70
2019-01-11T08:06:48.179Z,-3.70
2019-01-11T08:09:18.659Z,-3.70
2019-01-11T08:11:49.245Z,-3.80
2019-01-11T08:14:19.730Z,-3.80
2019-01-11T08:16:50.950Z,-3.80
2019-01-11T08:19:21.430Z,-3.70
2019-01-11T08:21:51.964Z,-3.70
2019-01-11T08:24:22.454Z,-3.70
2019-01-11T08:26:53.474Z,-3.70
2019-01-11T08:29:23.953Z,-3.60
2019-01-11T08:31:54.543Z,-3.30
2019-01-11T08:34:25.050Z,-3.00
2019-01-11T08:36:55.536Z,-2.70
2019-01-11T08:39:32.236Z,-2.40
2019-01-11T08:41:58.253Z,-2.10
2019-01-11T08:44:28.781Z,-1.90
2019-01-11T08:46:59.275Z,-1.80
2019-01-11T08:49:29.789Z,-1.60
2019-01-11T08:52:00.293Z,-1.50
2019-01-11T08:54:31.874Z,-1.30
2019-01-11T08:57:02.433Z,-1.30
2019-01-11T08:59:33.205Z,-1.30
2019-01-11T09:02:03.697Z,-1.30
2019-01-11T09:04:34.220Z,-1.20
2019-01-11T09:07:04.790Z,-1.10
2019-01-11T09:09:35.322Z,-1.10
2019-01-11T09:12:05.974Z,-1.10
2019-01-11T09:14:46.962Z,-1.00
2019-01-11T09:17:18.121Z,-0.90
2019-01-11T09:19:48.650Z,-0.90
2019-01-11T09:22:19.227Z,-0.90
2019-01-11T09:24:49.775Z,-0.90
2019-01-11T09:27:20.288Z,-0.80
2019-01-11T09:29:50.795Z,-0.70
2019-01-11T09:32:23.643Z,-0.70
2019-01-11T09:34:54.219Z,-0.80
2019-01-11T09:37:24.705Z,-0.70
2019-01-11T09:39:55.305Z,-0.80
2019-01-11T09:42:25.786Z,-0.80
2019-01-11T09:44:56.290Z,-0.80
2019-01-11T09:47:26.769Z,-0.80
2019-01-11T09:49:57.345Z,-0.70
2019-01-11T09:52:27.822Z,-0.80
2019-01-11T09:54:58.353Z,-0.70
2019-01-11T09:57:28.829Z,-0.80
2019-01-11T09:59:59.331Z,-0.80
2019-01-11T10:02:36.566Z,-0.80
2019-01-11T10:05:09.642Z,-0.80
2019-01-11T10:07:40.147Z,-0.70
2019-01-11T10:10:13.172Z,-0.60
2019-01-11T10:12:47.037Z,-0.40
2019-01-11T10:15:18.240Z,-0.30
2019-01-11T10:17:50.401Z,-0.20
2019-01-11T10:20:21.111Z,-0.20
2019-01-11T10:22:51.593Z,-0.10
2019-01-11T10:25:22.515Z,0.00
2019-01-11T10:27:52.982Z,0.00
2019-01-11T10:30:23.921Z,0.00
2019-01-11T10:32:54.516Z,0.00
2019-01-11T10:35:25.165Z,0.00
2019-01-11T10:37:55.720Z,0.00
2019-01-11T10:40:26.222Z,0.00
2019-01-11T10:42:56.853Z,0.00
2019-01-11T10:45:27.332Z,0.10
2019-01-11T10:47:59.128Z,0.10
2019-01-11T10:50:29.598Z,0.10
2019-01-11T10:53:00.102Z,0.20
2019-01-11T10:55:31.137Z,0.20
2019-01-11T10:58:03.178Z,0.30
2019-01-11T11:00:41.248Z,0.50
2019-01-11T11:03:12.225Z,0.60
2019-01-11T11:05:42.682Z,0.70
2019-01-11T11:08:14.828Z,0.80
2019-01-11T11:10:45.304Z,1.00
2019-01-11T11:13:15.808Z,1.20
2019-01-11T11:15:47.982Z,1.60
2019-01-11T11:18:18.442Z,1.70
2019-01-11T11:20:48.950Z,1.70
2019-01-11T11:23:19.454Z,1.80
2019-01-11T11:25:50.006Z,2.10
2019-01-11T11:28:20.514Z,2.10
2019-01-11T11:30:51.127Z,2.10
2019-01-11T11:33:21.667Z,2.10
2019-01-11T11:35:52.135Z,1.90
2019-01-11T11:38:22.642Z,1.80
2019-01-11T11:40:53.182Z,1.70
2019-01-11T11:43:23.668Z,1.70
2019-01-11T11:45:54.166Z,1.80
2019-01-11T11:48:24.662Z,1.70
2019-01-11T11:50:55.240Z,1.80
2019-01-11T11:53:25.737Z,1.90
2019-01-11T11:55:56.300Z,1.90
2019-01-11T11:58:26.763Z,2.10
2019-01-11T12:00:57.256Z,2.10
2019-01-11T12:03:27.726Z,2.00
2019-01-11T12:05:58.215Z,2.00
2019-01-11T12:08:28.818Z,2.10
2019-01-11T12:10:59.322Z,2.00
2019-01-11T12:13:29.822Z,2.10
2019-01-11T12:16:00.311Z,2.40
2019-01-11T12:18:30.813Z,2.80
2019-01-11T12:21:01.283Z,3.00
2019-01-11T12:23:31.791Z,3.30
2019-01-11T12:26:02.530Z,3.50
2019-01-11T12:28:33.035Z,3.60
2019-01-11T12:31:03.574Z,3.80
2019-01-11T12:33:34.076Z,4.10
2019-01-11T12:36:04.644Z,4.10
2019-01-11T12:38:35.241Z,4.00
2019-01-11T12:41:05.687Z,4.00
2019-01-11T12:43:36.259Z,4.10
2019-01-11T12:46:06.761Z,4.20
2019-01-11T12:48:37.295Z,4.30
2019-01-11T12:51:07.822Z,4.50
2019-01-11T12:53:38.330Z,4.70
2019-01-11T12:56:08.888Z,4.90
2019-01-11T12:58:39.385Z,5.00
2019-01-11T13:01:10.117Z,5.10
2019-01-11T13:03:40.634Z,5.20
2019-01-11T13:06:11.128Z,5.40
2019-01-11T13:08:41.595Z,5.60
2019-01-11T13:11:12.111Z,5.70
2019-01-11T13:13:42.608Z,5.70
2019-01-11T13:16:13.075Z,5.60
2019-01-11T13:18:43.574Z,5.30
2019-01-11T13:52:07.526Z,5.30
2019-01-11T13:54:38.133Z,5.40
2019-01-11T13:57:10.394Z,5.10
2019-01-11T13:59:41.620Z,4.80
2019-01-11T14:02:12.470Z,4.10
2019-01-11T14:04:43.004Z,3.50
2019-01-11T14:07:13.494Z,3.00
2019-01-11T14:09:43.976Z,2.60
2019-01-11T14:12:14.434Z,2.40
2019-01-11T14:14:46.571Z,2.00
2019-01-11T14:17:17.154Z,1.60
2019-01-11T14:19:47.657Z,1.30
2019-01-11T14:22:19.008Z,1.00
2019-01-11T14:24:49.506Z,0.90
2019-01-11T14:27:19.975Z,0.70
2019-01-11T14:29:53.164Z,0.50
2019-01-11T14:32:23.658Z,0.50
2019-01-11T14:34:54.144Z,0.40
2019-01-11T14:37:24.678Z,0.30
2019-01-11T14:39:55.167Z,0.30
2019-01-11T14:42:25.635Z,0.10
2019-01-11T14:44:56.131Z,0.00
2019-01-11T14:47:26.658Z,0.00
2019-01-11T14:49:57.176Z,-0.10
2019-01-11T14:52:27.633Z,-0.10
2019-01-11T14:54:59.911Z,-0.20
2019-01-11T14:57:32.146Z,-0.20
2019-01-11T15:00:02.918Z,-0.30
2019-01-11T15:02:33.384Z,-0.30
2019-01-11T15:05:05.657Z,-0.40
2019-01-11T15:07:36.117Z,-0.50
2019-01-11T15:10:11.116Z,-0.60
2019-01-11T15:12:42.985Z,-0.60
2019-01-11T15:15:13.639Z,-0.60
2019-01-11T15:17:44.148Z,-0.70
2019-01-11T15:20:18.095Z,-0.80
2019-01-11T15:22:49.069Z,-0.90
2019-01-11T15:25:22.089Z,-0.90
2019-01-11T15:27:52.657Z,-0.90
2019-01-11T15:30:23.304Z,-1.00
2019-01-11T15:32:53.804Z,-1.00
2019-01-11T15:35:24.343Z,-1.10
2019-01-11T15:37:54.846Z,-1.20
2019-01-11T15:40:27.263Z,-1.30
2019-01-11T15:42:57.799Z,-1.30
2019-01-11T15:45:28.376Z,-1.40
2019-01-11T15:48:00.108Z,-1.40
2019-01-11T15:50:52.410Z,-1.40
2019-01-11T15:53:22.907Z,-1.40
2019-01-11T15:55:53.655Z,-1.30
2019-01-11T15:58:24.126Z,-1.50
2019-01-11T16:00:54.635Z,-1.50
2019-01-11T16:03:25.161Z,-1.60
2019-01-11T16:06:28.061Z,-1.70
2019-01-11T16:09:15.271Z,-1.70
2019-01-11T16:12:08.595Z,-1.80
2019-01-11T16:14:54.013Z,-1.70
2019-01-11T16:17:30.064Z,-1.80
2019-01-11T16:20:00.598Z,-1.90
2019-01-11T16:22:31.101Z,-1.90
2019-01-11T16:25:01.640Z,-1.80
2019-01-11T16:27:32.239Z,-1.80
2019-01-11T16:30:02.842Z,-1.80
2019-01-11T16:32:33.328Z,-1.80
2019-01-11T16:35:04.801Z,-1.90
2019-01-11T16:37:35.319Z,-1.90
2019-01-11T16:40:12.384Z,-1.90
2019-01-11T16:42:44.259Z,-2.00
2019-01-11T16:45:15.911Z,-1.90
2019-01-11T16:47:46.380Z,-1.90
2019-01-11T16:50:19.299Z,-2.00
2019-01-11T16:52:49.806Z,-2.00
2019-01-11T16:55:20.302Z,-2.00
2019-01-11T16:57:50.782Z,-2.00
2019-01-11T17:00:23.137Z,-2.00
2019-01-11T17:02:53.644Z,-2.10
2019-01-11T17:05:25.678Z,-2.10
2019-01-11T17:07:56.183Z,-2.20
2019-01-11T17:10:26.695Z,-2.20
2019-01-11T17:12:57.187Z,-2.30
2019-01-11T17:15:28.183Z,-2.30
2019-01-11T17:17:58.679Z,-2.40
2019-01-11T17:20:30.691Z,-2.40
2019-01-11T17:23:01.151Z,-2.40
2019-01-11T17:25:31.692Z,-2.40
2019-01-11T17:28:03.726Z,-2.50
2019-01-11T17:30:35.200Z,-2.60
2019-01-11T17:33:05.696Z,-2.60
2019-01-11T17:35:36.194Z,-2.60
2019-01-11T17:38:08.640Z,-2.70
2019-01-11T17:40:39.097Z,-2.60
2019-01-11T17:43:09.601Z,-2.60
2019-01-11T17:45:40.069Z,-2.60
2019-01-11T17:48:10.638Z,-2.60
2019-01-11T17:50:42.713Z,-2.50
2019-01-11T17:53:13.770Z,-2.60
2019-01-11T17:55:44.307Z,-2.60
2019-01-11T17:58:16.054Z,-2.70
2019-01-11T18:00:48.478Z,-2.80
2019-01-11T18:03:19.565Z,-3.00
2019-01-11T18:05:50.078Z,-3.10
2019-01-11T18:08:22.169Z,-3.10
2019-01-11T18:10:55.648Z,-3.30
2019-01-11T18:13:24.874Z,-3.40
2019-01-11T18:15:55.385Z,-3.40
2019-01-11T18:18:25.890Z,-3.50
2019-01-11T18:20:56.368Z,-3.60
2019-01-11T18:23:27.656Z,-3.60
2019-01-11T18:25:58.118Z,-3.60
2019-01-11T18:28:28.635Z,-3.50
2019-01-11T18:30:59.164Z,-3.60
2019-01-11T18:33:29.636Z,-3.70
2019-01-11T18:36:00.169Z,-3.70
2019-01-11T18:38:30.677Z,-3.70
2019-01-11T18:41:01.207Z,-3.70
2019-01-11T18:43:33.359Z,-3.80
2019-01-11T18:46:03.930Z,-3.70
2019-01-11T18:48:34.413Z,-3.70
2019-01-11T18:51:06.621Z,-3.70
2019-01-11T18:53:37.099Z,-3.60
2019-01-11T18:56:07.617Z,-3.70
2019-01-11T18:58:38.119Z,-3.80
2019-01-11T19:01:08.644Z,-3.80
2019-01-11T19:03:39.154Z,-3.70
2019-01-11T19:06:12.495Z,-3.70
2019-01-11T19:08:43.016Z,-3.60
2019-01-11T19:11:15.220Z,-3.60
2019-01-11T19:13:45.694Z,-3.50
2019-01-11T19:16:16.309Z,-3.50
2019-01-11T19:18:47.302Z,-3.50
2019-01-11T19:21:19.405Z,-3.40
2019-01-11T19:23:49.928Z,-3.40
2019-01-11T19:26:20.399Z,-3.40
2019-01-11T19:28:50.928Z,-3.40
2019-01-11T19:31:21.390Z,-3.40
2019-01-11T19:33:51.965Z,-3.40
2019-01-11T19:36:22.478Z,-3.40
2019-01-11T19:38:52.947Z,-3.40
2019-01-11T19:41:23.418Z,-3.40
2019-01-11T19:43:53.920Z,-3.40
2019-01-11T19:46:24.394Z,-3.40
2019-01-11T19:48:56.604Z,-3.40
2019-01-11T19:51:27.070Z,-3.50
2019-01-11T19:53:57.585Z,-3.50
2019-01-11T19:56:29.524Z,-3.50
2019-01-11T19:59:00.067Z,-3.40
2019-01-11T20:01:30.608Z,-3.40
2019-01-11T20:04:01.205Z,-3.40
2019-01-11T20:06:31.866Z,-3.40
2019-01-11T20:09:02.847Z,-3.30
2019-01-11T20:11:33.540Z,-3.30
2019-01-11T20:14:04.261Z,-3.30
2019-01-11T20:16:34.836Z,-3.30
2019-01-11T20:19:05.906Z,-3.20
2019-01-11T20:21:36.389Z,-3.20
2019-01-11T20:24:06.976Z,-3.20
2019-01-11T20:26:37.519Z,-3.20
2019-01-11T20:29:08.110Z,-3.10
2019-01-11T20:31:38.589Z,-3.10
2019-01-11T20:34:09.180Z,-3.10
2019-01-11T20:36:47.054Z,-3.00
2019-01-11T20:39:17.572Z,-3.00
2019-01-11T20:41:48.090Z,-3.00
2019-01-11T20:44:18.647Z,-3.00
2019-01-11T20:46:49.234Z,-3.00
2019-01-11T20:49:19.742Z,-3.00
2019-01-11T20:51:50.327Z,-3.10
2019-01-11T20:54:20.946Z,-3.10
2019-01-11T20:56:52.759Z,-3.10
2019-01-11T20:59:23.309Z,-3.10
2019-01-11T21:01:53.818Z,-3.20
2019-01-11T21:04:24.295Z,-3.10
2019-01-11T21:06:54.810Z,-3.20
2019-01-11T21:09:25.326Z,-3.20
2019-01-11T21:11:55.830Z,-1.80
2019-01-11T21:14:26.345Z,-3.20
2019-01-11T21:16:56.894Z,-3.20
2019-01-11T21:19:29.350Z,-3.20
2019-01-11T21:21:59.885Z,-3.20
2019-01-11T21:24:30.365Z,-3.20
2019-01-11T21:27:02.551Z,-3.20
2019-01-11T21:29:33.071Z,-3.20
2019-01-11T21:32:03.655Z,-3.20
2019-01-11T21:34:34.147Z,-3.20
2019-01-11T21:37:04.715Z,-3.10
2019-01-11T21:39:35.283Z,-3.10
2019-01-11T21:42:05.866Z,-3.20
2019-01-11T21:44:38.107Z,-3.20
2019-01-11T21:47:08.631Z,-3.30
2019-01-11T21:49:39.102Z,-3.30
2019-01-11T21:52:09.621Z,-3.30
2019-01-11T21:54:40.131Z,-3.40
2019-01-11T21:57:11.481Z,-3.30
2019-01-11T21:59:41.956Z,-3.40
2019-01-11T22:02:12.484Z,-3.30
2019-01-11T22:04:42.992Z,-3.40
2019-01-11T22:07:13.466Z,-3.40
2019-01-11T22:09:43.977Z,-3.40
2019-01-11T22:12:14.543Z,-3.40
2019-01-11T22:14:45.057Z,-3.40
2019-01-11T22:17:15.555Z,-3.50
2019-01-11T22:19:46.064Z,-3.40
2019-01-11T22:22:16.550Z,-3.50
2019-01-11T22:24:47.040Z,-3.40
2019-01-11T22:27:17.548Z,-3.40
2019-01-11T22:29:48.402Z,-3.40
2019-01-11T22:32:18.901Z,-3.40
2019-01-11T22:34:49.380Z,-3.40
2019-01-11T22:37:19.900Z,-3.40
2019-01-11T22:39:50.411Z,-3.30
2019-01-11T22:42:20.930Z,-3.30
2019-01-11T22:44:51.439Z,-3.30
2019-01-11T22:47:23.584Z,-3.20
2019-01-11T22:49:54.109Z,-3.20
2019-01-11T22:52:24.575Z,-3.10
2019-01-11T22:54:55.088Z,-3.10
2019-01-11T22:57:25.577Z,-3.10
2019-01-11T22:59:56.071Z,-3.10
2019-01-11T23:02:30.789Z,-3.10
2019-01-11T23:05:02.196Z,-3.00
2019-01-11T23:07:34.252Z,-3.00
2019-01-11T23:10:12.318Z,-3.00
2019-01-11T23:12:46.074Z,-3.00
2019-01-11T23:15:19.264Z,-3.10
2019-01-11T23:17:53.085Z,-3.10
2019-01-11T23:20:23.645Z,-3.10
2019-01-11T23:22:54.170Z,-3.10
2019-01-11T23:25:24.662Z,-3.10
2019-01-11T23:27:55.244Z,-3.10
2019-01-11T23:30:25.784Z,-3.10
2019-01-11T23:32:56.302Z,-3.10
2019-01-11T23:35:26.969Z,-3.20
2019-01-11T23:37:57.502Z,-3.20
2019-01-11T23:40:28.284Z,-3.20
2019-01-11T23:42:58.766Z,-3.30
2019-01-11T23:45:30.328Z,-3.30
2019-01-11T23:48:01.700Z,-3.30
2019-01-11T23:50:32.304Z,-3.40
2019-01-11T23:53:02.762Z,-3.40
2019-01-11T23:55:34.989Z,-3.40
2019-01-11T23:58:05.494Z,-3.40
